| time (UTC) | temp C | wind direction | speed KPH | gust KPH | rain 1hr cm | rain 24hr cm | rain mn cm | humidity % | barometer mb |
| 20260905204547 | 35 | 32 | 3.2 | 8.0 | 0.00 | 0.05 | 0.03 | 66 | 1024.5 |
| 20260905203053 | 36 | 21 | 6.4 | 9.7 | 0.00 | 0.05 | 0.03 | 63 | 1024.7 |
| 20260905201543 | 35 | 30 | 1.6 | 8.0 | 0.00 | 0.05 | 0.03 | 66 | 1024.7 |
| 20260905200025 | 36 | 337 | 4.8 | 11.3 | 0.00 | 0.05 | 0.03 | 62 | 1025.0 |
| 20260905194527 | 36 | 342 | 6.4 | 14.5 | 0.00 | 0.05 | 0.03 | 58 | 1025.1 |
| 20260905193023 | 35 | 13 | 6.4 | 12.9 | 0.00 | 0.05 | 0.03 | 58 | 1025.0 |
| 20260905191521 | 36 | 349 | 4.8 | 20.9 | 0.00 | 0.05 | 0.03 | 62 | 1025.2 |
| 20260905190018 | 36 | 340 | 4.8 | 12.9 | 0.00 | 0.05 | 0.03 | 59 | 1025.2 |
| 20260905184515 | 36 | 10 | 12.9 | 20.9 | 0.00 | 0.05 | 0.03 | 58 | 1025.4 |
| 20260905183012 | 34 | 213 | 3.2 | 12.9 | 0.03 | 0.05 | 0.03 | 65 | 1025.6 |
| 20260905181511 | 35 | 256 | 3.2 | 12.9 | 0.03 | 0.05 | 0.03 | 66 | 1025.9 |
| 20260905180100 | 35 | 236 | 0.0 | 12.9 | 0.03 | 0.05 | 0.03 | 65 | 1026.0 |
| 20260905174555 | 35 | 352 | 0.0 | 9.7 | 0.03 | 0.05 | 0.03 | 66 | 1026.2 |
| 20260905173050 | 34 | 108 | 1.6 | 6.4 | 0.00 | 0.03 | 0.00 | 70 | 1026.4 |
| 20260905171547 | 33 | 262 | 3.2 | 11.3 | 0.00 | 0.03 | 0.00 | 69 | 1026.3 |
| 20260905170043 | 32 | 199 | 0.0 | 14.5 | 0.00 | 0.03 | 0.00 | 71 | 1026.5 |
| 20260905164540 | 32 | 219 | 4.8 | 16.1 | 0.00 | 0.03 | 0.00 | 73 | 1026.7 |
| 20260905163037 | 32 | 212 | 8.0 | 17.7 | 0.00 | 0.03 | 0.00 | 74 | 1026.6 |
| 20260905161535 | 31 | 176 | 4.8 | 17.7 | 0.00 | 0.03 | 0.00 | 76 | 1026.8 |
| 20260905160019 | 31 | 231 | 8.0 | 16.1 | 0.00 | 0.03 | 0.00 | 76 | 1026.9 |
| 20260905154513 | 31 | 202 | 4.8 | 14.5 | 0.00 | 0.03 | 0.00 | 78 | 1027.0 |
| 20260905153111 | 30 | 154 | 6.4 | 19.3 | 0.00 | 0.03 | 0.00 | 80 | 1027.0 |
| 20260905151557 | 30 | 130 | 6.4 | 17.7 | 0.00 | 0.03 | 0.00 | 80 | 1027.0 |
| 20260905150050 | 30 | 137 | 8.0 | 14.5 | 0.00 | 0.03 | 0.00 | 81 | 1027.4 |
| 20260905144529 | 29 | 167 | 9.7 | 16.1 | 0.00 | 0.03 | 0.00 | 82 | 1027.3 |
| 20260905143027 | 28 | 185 | 8.0 | 14.5 | 0.00 | 0.03 | 0.00 | 85 | 1027.2 |
| 20260905141510 | 27 | 115 | 4.8 | 16.1 | 0.00 | 0.03 | 0.00 | 88 | 1027.2 |
| 20260905140006 | 28 | 87 | 3.2 | 6.4 | 0.00 | 0.03 | 0.00 | 87 | 1027.1 |
| 20260905134556 | 28 | 109 | 3.2 | 6.4 | 0.00 | 0.03 | 0.00 | 86 | 1026.9 |
| 20260905133051 | 27 | 232 | 3.2 | 6.4 | 0.00 | 0.03 | 0.00 | 87 | 1026.9 |
| 20260905131546 | 26 | 91 | 0.0 | 4.8 | 0.00 | 0.03 | 0.00 | 91 | 1026.9 |
| 20260905130042 | 26 | 57 | 1.6 | 4.8 | 0.00 | 0.03 | 0.00 | 91 | 1027.0 |
| 20260905124542 | 25 | 20 | 0.0 | 3.2 | 0.00 | 0.03 | 0.00 | 94 | 1027.0 |
| 20260905123037 | 25 | 20 | 0.0 | 1.6 | 0.00 | 0.03 | 0.00 | 95 | 1026.9 |
| 20260905121531 | -17 | 0.0 | 0.0 | 0.00 | 0.03 | 0.00 | 1026.7 | ||
| 20260905120026 | -17 | 0.0 | 0.0 | 0.00 | 0.03 | 0.00 | 1026.8 | ||
| 20260905114510 | -17 | 0.0 | 0.0 | 0.00 | 0.03 | 0.00 | 1026.7 | ||
| 20260905113001 | -17 | 0.0 | 0.0 | 0.00 | 0.03 | 0.00 | 1026.7 | ||
| 20260905111538 | -17 | 0.0 | 0.0 | 0.00 | 0.03 | 0.00 | 1026.6 | ||
| 20260905110034 | -17 | 0.0 | 0.0 | 0.00 | 0.03 | 0.00 | 1026.6 | ||
| 20260905104512 | 22 | 20 | 0.0 | 3.2 | 0.00 | 0.03 | 0.00 | 100 | 1026.4 |
| 20260905103018 | 23 | 20 | 0.0 | 0.0 | 0.00 | 0.03 | 0.00 | 100 | 1026.4 |
| 20260905101553 | 23 | 20 | 0.0 | 0.0 | 0.00 | 0.03 | 0.00 | 100 | 1026.4 |
| 20260905100055 | 22 | 20 | 0.0 | 0.0 | 0.00 | 0.03 | 0.00 | 100 | 1026.4 |
| 20260905094535 | 22 | 20 | 0.0 | 0.0 | 0.00 | 0.03 | 0.00 | 100 | 1026.4 |
| 20260905093025 | 23 | 20 | 0.0 | 0.0 | 0.00 | 0.03 | 0.00 | 100 | 1026.3 |
| 20260905091623 | 23 | 20 | 0.0 | 0.0 | 0.00 | 0.03 | 0.00 | 99 | 1026.2 |
| 20260905091502 | 23 | 20 | 0.0 | 0.0 | 0.00 | 0.03 | 0.00 | 99 | 1026.2 |
| 20260905090119 | 23 | 20 | 0.0 | 0.0 | 0.00 | 0.03 | 0.00 | 100 | 1026.0 |
| 20260905084540 | 23 | 20 | 0.0 | 0.0 | 0.00 | 0.03 | 0.00 | 100 | 1025.8 |
| 20260905083037 | 23 | 20 | 0.0 | 3.2 | 0.00 | 0.03 | 0.00 | 100 | 1025.8 |
| 20260905081518 | 23 | 20 | 0.0 | 0.0 | 0.00 | 0.03 | 0.03 | 100 | 1025.9 |
| 20260905080017 | 23 | 19 | 0.0 | 0.0 | 0.00 | 0.03 | 0.03 | 100 | 1025.8 |
| 20260905074601 | 23 | 19 | 0.0 | 0.0 | 0.00 | 0.03 | 0.03 | 99 | 1025.9 |
| 20260905074505 | 23 | 19 | 0.0 | 0.0 | 0.00 | 0.03 | 0.03 | 99 | 1025.9 |
| 20260905073103 | 23 | 19 | 0.0 | 0.0 | 0.00 | 0.03 | 0.03 | 99 | 1025.9 |
| 20260905071549 | 23 | 19 | 0.0 | 0.0 | 0.00 | 0.03 | 0.03 | 99 | 1025.9 |
| 20260905070045 | 23 | 19 | 0.0 | 0.0 | 0.00 | 0.03 | 0.03 | 99 | 1026.1 |
| 20260905064545 | 23 | 19 | 0.0 | 0.0 | 0.00 | 0.03 | 0.03 | 99 | 1026.2 |
| 20260905063044 | 23 | 19 | 0.0 | 0.0 | 0.00 | 0.03 | 0.03 | 99 | 1026.4 |
| 20260905061609 | 24 | 19 | 0.0 | 0.0 | 0.00 | 0.03 | 0.03 | 99 | 1026.3 |
| 20260905060043 | 24 | 19 | 0.0 | 0.0 | 0.00 | 0.03 | 0.03 | 98 | 1026.3 |
| 20260905054543 | 24 | 20 | 0.0 | 1.6 | 0.00 | 0.03 | 0.03 | 98 | 1026.4 |
| 20260905053045 | 25 | 20 | 0.0 | 0.0 | 0.00 | 0.03 | 0.03 | 97 | 1026.3 |
| 20260905051545 | 25 | 20 | 0.0 | 0.0 | 0.00 | 0.03 | 0.03 | 97 | 1026.3 |
| 20260905050041 | 25 | 20 | 0.0 | 0.0 | 0.00 | 0.03 | 0.03 | 97 | 1026.3 |
| 20260905044531 | 25 | 20 | 0.0 | 0.0 | 0.00 | 0.03 | 0.03 | 97 | 1026.4 |
| 20260905043027 | 25 | 20 | 0.0 | 0.0 | 0.00 | 0.03 | 0.03 | 97 | 1026.6 |
| 20260905041505 | 25 | 20 | 0.0 | 0.0 | 0.00 | 0.03 | 0.03 | 97 | 1026.7 |
| 20260905040005 | 25 | 20 | 0.0 | 0.0 | 0.00 | 0.03 | 0.03 | 96 | 1026.8 |
| 20260905034552 | 25 | 20 | 0.0 | 0.0 | 0.00 | 0.03 | 0.03 | 97 | 1026.6 |
| 20260905033039 | 25 | 20 | 0.0 | 0.0 | 0.00 | 0.03 | 0.03 | 97 | 1026.8 |
| 20260905031523 | 25 | 20 | 0.0 | 0.0 | 0.00 | 0.03 | 0.03 | 97 | 1026.9 |
| 20260905030033 | 26 | 20 | 0.0 | 0.0 | 0.00 | 0.03 | 0.03 | 95 | 1026.7 |
| 20260905024512 | 26 | 20 | 0.0 | 0.0 | 0.00 | 0.03 | 0.03 | 94 | 1026.6 |
| 20260905023010 | 26 | 20 | 0.0 | 0.0 | 0.00 | 0.03 | 0.03 | 93 | 1026.5 |
| 20260905021509 | 27 | 20 | 0.0 | 0.0 | 0.00 | 0.03 | 0.03 | 93 | 1026.5 |
| 20260905020010 | 27 | 20 | 0.0 | 0.0 | 0.00 | 0.03 | 0.03 | 92 | 1026.4 |
| 20260905014508 | 27 | 20 | 0.0 | 0.0 | 0.03 | 0.03 | 0.03 | 92 | 1026.4 |
| 20260905013006 | 27 | 20 | 0.0 | 1.6 | 0.03 | 0.03 | 0.03 | 91 | 1026.2 |
| 20260905011506 | 27 | 19 | 0.0 | 0.0 | 0.03 | 0.03 | 0.03 | 90 | 1026.1 |
| 20260905010011 | 28 | 19 | 0.0 | 3.2 | 0.03 | 0.03 | 0.03 | 87 | 1026.0 |
| 20260905004550 | 29 | 19 | 0.0 | 4.8 | 0.00 | 0.00 | 0.00 | 85 | 1025.7 |
| 20260905003047 | 30 | 313 | 0.0 | 1.6 | 0.00 | 0.00 | 0.00 | 83 | 1025.5 |
| 20260905001545 | 30 | 313 | 0.0 | 0.0 | 0.00 | 0.03 | 0.00 | 79 | 1025.7 |
| 20260905000029 | 31 | 313 | 0.0 | 0.0 | 0.00 | 0.03 | 0.00 | 75 | 1025.7 |
| 20260904234516 | 33 | 304 | 0.0 | 0.0 | 0.00 | 0.03 | 0.00 | 71 | 1025.6 |
| 20260904233031 | 33 | 304 | 0.0 | 1.6 | 0.00 | 0.03 | 0.00 | 69 | 1025.5 |
| 20260904231600 | 35 | 304 | 0.0 | 0.0 | 0.00 | 0.03 | 0.00 | 65 | 1025.6 |
| 20260904230050 | 35 | 288 | 1.6 | 4.8 | 0.00 | 0.03 | 0.00 | 63 | 1025.5 |
| 20260904224547 | 35 | 242 | 1.6 | 6.4 | 0.00 | 0.03 | 0.00 | 61 | 1025.5 |
| 20260904223050 | 35 | 207 | 4.8 | 9.7 | 0.00 | 0.03 | 0.00 | 59 | 1025.5 |
| 20260904221536 | 35 | 229 | 4.8 | 9.7 | 0.00 | 0.03 | 0.00 | 57 | 1025.6 |
| 20260904220034 | 36 | 249 | 6.4 | 9.7 | 0.00 | 0.03 | 0.00 | 59 | 1025.8 |
| 20260904214533 | 35 | 221 | 6.4 | 12.9 | 0.00 | 0.03 | 0.00 | 58 | 1025.9 |
| 20260904213033 | 36 | 214 | 4.8 | 14.5 | 0.00 | 0.03 | 0.00 | 58 | 1025.9 |
| 20260904211531 | 36 | 236 | 8.0 | 14.5 | 0.00 | 0.03 | 0.00 | 56 | 1025.9 |
| 20260904210029 | 35 | 200 | 8.0 | 16.1 | 0.00 | 0.03 | 0.00 | 54 | 1026.1 |